Home > Products > Valid Products > TAF

000
FTUS42 KRAH 251120
TAFRWI
TAF
KRWI 251120Z 2512/2612 26004KT P6SM BKN060 OVC100
     FM251800 03006KT 5SM -RA BR OVC015
     FM252100 02006KT 4SM -RA BR OVC007
     FM260300 VRB02KT 2SM BR OVC003=



000
FTUS42 KRAH 251120
TAFGSO
TAF
KGSO 251120Z 2512/2612 VRB03KT P6SM -RA OVC050
     FM251600 09005KT 4SM -RA BR OVC007
     FM252300 VRB03KT 2SM BR OVC003=



000
FTUS42 KRAH 251120
TAFINT
TAF
KINT 251120Z 2512/2612 VRB03KT P6SM -RA OVC050
     FM251600 09005KT 4SM -RA BR OVC007
     FM252300 VRB03KT 2SM BR OVC003=



000
FTUS42 KRAH 251120
TAFFAY
TAF
KFAY 251120Z 2512/2612 00000KT P6SM BKN080 BKN250
      TEMPO 2512/2515 P6SM -RA BKN040
     FM251500 20006KT 5SM -RA BR OVC015
     FM252200 20006KT 6SM -SHRA OVC007
     FM260300 24004KT 3SM BR OVC004=



000
FTUS42 KRAH 251120
TAFRDU
TAF
KRDU 251120Z 2512/2612 VRB03KT P6SM BKN100
      TEMPO 2512/2515 P6SM -RA OVC040
     FM251500 12004KT 5SM -RA OVC025
     FM252000 16005KT 4SM -RA BR OVC007
     FM260300 VRB03KT 2SM BR OVC005=



000
FTUS42 KRAH 251120
TAFGSO
TAF
KGSO 251120Z 2512/2612 VRB03KT P6SM -RA OVC050
     FM251600 09005KT 4SM -RA BR OVC007
     FM252300 VRB03KT 2SM BR OVC003=



000
FTUS42 KRAH 251120
TAFRDU
TAF
KRDU 251120Z 2512/2612 VRB03KT P6SM BKN100
      TEMPO 2512/2515 P6SM -RA OVC040
     FM251500 12004KT 5SM -RA OVC025
     FM252000 16005KT 4SM -RA BR OVC007
     FM260300 VRB03KT 2SM BR OVC005=



000
FTUS42 KRAH 251120
TAFFAY
TAF
KFAY 251120Z 2512/2612 00000KT P6SM BKN080 BKN250
      TEMPO 2512/2515 P6SM -RA BKN040
     FM251500 20006KT 5SM -RA BR OVC015
     FM252200 20006KT 6SM -SHRA OVC007
     FM260300 24004KT 3SM BR OVC004=



000
FTUS42 KRAH 251120
TAFRWI
TAF
KRWI 251120Z 2512/2612 26004KT P6SM BKN060 OVC100
     FM251800 03006KT 5SM -RA BR OVC015
     FM252100 02006KT 4SM -RA BR OVC007
     FM260300 VRB02KT 2SM BR OVC003=



000
FTUS42 KRAH 251120
TAFINT
TAF
KINT 251120Z 2512/2612 VRB03KT P6SM -RA OVC050
     FM251600 09005KT 4SM -RA BR OVC007
     FM252300 VRB03KT 2SM BR OVC003=



000
FTUS42 KRAH 250934 AAA
TAFRDU
TAF AMD
KRDU 250934Z 2510/2606 VRB03KT P6SM BKN100
     FM251500 12004KT 5SM -RA OVC025
     FM252000 VRB05KT 4SM -RA BR OVC007
     FM260300 VRB03KT 2SM -RA BR OVC005=



000
FTUS42 KRAH 250934 AAA
TAFRDU
TAF AMD
KRDU 250934Z 2510/2606 VRB03KT P6SM BKN100
     FM251500 12004KT 5SM -RA OVC025
     FM252000 VRB05KT 4SM -RA BR OVC007
     FM260300 VRB03KT 2SM -RA BR OVC005=



000
FTUS42 KRAH 250934 AAA
TAFRDU
TAF AMD
KRDU 250934Z 2510/2606 VRB03KT P6SM BKN100
     FM251500 12004KT 5SM -RA OVC025
     FM252000 VRB05KT 4SM -RA BR OVC007
     FM260300 VRB03KT 2SM -RA BR OVC005=



000
FTUS42 KRAH 250934 AAA
TAFRDU
TAF AMD
KRDU 250934Z 2510/2606 VRB03KT P6SM BKN100
     FM251500 12004KT 5SM -RA OVC025
     FM252000 VRB05KT 4SM -RA BR OVC007
     FM260300 VRB03KT 2SM -RA BR OVC005=



000
FTUS42 KRAH 250933 AAA
TAFGSO
TAF AMD
KGSO 250933Z 2510/2606 13003KT P6SM BKN080
     FM251200 06005KT P6SM -RA OVC050
     FM251600 09005KT 4SM -RA BR OVC007
     FM252300 18006KT 4SM BR OVC003=



000
FTUS42 KRAH 250933 AAA
TAFGSO
TAF AMD
KGSO 250933Z 2510/2606 13003KT P6SM BKN080
     FM251200 06005KT P6SM -RA OVC050
     FM251600 09005KT 4SM -RA BR OVC007
     FM252300 18006KT 4SM BR OVC003=



000
FTUS42 KRAH 250933 AAA
TAFINT
TAF AMD
KINT 250933Z 2510/2606 13003KT P6SM BKN080
     FM251200 06005KT P6SM -RA OVC050
     FM251600 09005KT 4SM -RA BR OVC007
     FM252300 18006KT 4SM BR OVC003=



000
FTUS42 KRAH 250933 AAA
TAFINT
TAF AMD
KINT 250933Z 2510/2606 13003KT P6SM BKN080
     FM251200 06005KT P6SM -RA OVC050
     FM251600 09005KT 4SM -RA BR OVC007
     FM252300 18006KT 4SM BR OVC003=



000
FTUS42 KRAH 250933 AAA
TAFINT
TAF AMD
KINT 250933Z 2510/2606 13003KT P6SM BKN080
     FM251200 06005KT P6SM -RA OVC050
     FM251600 09005KT 4SM -RA BR OVC007
     FM252300 18006KT 4SM BR OVC003=



000
FTUS42 KRAH 250933 AAA
TAFINT
TAF AMD
KINT 250933Z 2510/2606 13003KT P6SM BKN080
     FM251200 06005KT P6SM -RA OVC050
     FM251600 09005KT 4SM -RA BR OVC007
     FM252300 18006KT 4SM BR OVC003=



000
FTUS42 KRAH 250933 AAA
TAFGSO
TAF AMD
KGSO 250933Z 2510/2606 13003KT P6SM BKN080
     FM251200 06005KT P6SM -RA OVC050
     FM251600 09005KT 4SM -RA BR OVC007
     FM252300 18006KT 4SM BR OVC003=



000
FTUS42 KRAH 250933 AAA
TAFGSO
TAF AMD
KGSO 250933Z 2510/2606 13003KT P6SM BKN080
     FM251200 06005KT P6SM -RA OVC050
     FM251600 09005KT 4SM -RA BR OVC007
     FM252300 18006KT 4SM BR OVC003=



000
FTUS42 KRAH 250540
TAFRDU
TAF
KRDU 250540Z 2506/2606 00000KT P6SM SCT250
     FM251100 13002KT P6SM BKN100
     FM251500 12004KT 5SM -RA OVC025
     FM252000 VRB05KT 4SM -RA BR OVC007
     FM260300 VRB03KT 2SM -RA BR OVC005=



000
FTUS42 KRAH 250540
TAFGSO
TAF
KGSO 250540Z 2506/2606 13003KT P6SM BKN080
     FM251200 06005KT P6SM -RA OVC050
     FM251600 09005KT 4SM -RA BR OVC007
     FM252300 18006KT 4SM BR OVC003=



000
FTUS42 KRAH 250540
TAFINT
TAF
KINT 250540Z 2506/2606 13003KT P6SM BKN080
     FM251200 06005KT P6SM -RA OVC050
     FM251600 09005KT 4SM -RA BR OVC007
     FM252300 18006KT 4SM BR OVC003=



000
FTUS42 KRAH 250540
TAFFAY
TAF
KFAY 250540Z 2506/2606 00000KT P6SM BKN080 BKN250
     FM251700 20006KT 4SM -RA BR OVC015
     FM252200 20006KT 3SM -RA BR OVC007=



000
FTUS42 KRAH 250540
TAFRWI
TAF
KRWI 250540Z 2506/2606 26004KT P6SM BKN250
     FM251300 10005KT P6SM OVC060
     FM251800 03006KT 4SM -RA BR OVC015
     FM252100 02006KT 4SM -RA BR OVC007
     FM260300 19002KT 2SM BR OVC003=



000
FTUS42 KRAH 250540
TAFINT
TAF
KINT 250540Z 2506/2606 13003KT P6SM BKN080
     FM251200 06005KT P6SM -RA OVC050
     FM251600 09005KT 4SM -RA BR OVC007
     FM252300 18006KT 4SM BR OVC003=



000
FTUS42 KRAH 250540
TAFRWI
TAF
KRWI 250540Z 2506/2606 26004KT P6SM BKN250
     FM251300 10005KT P6SM OVC060
     FM251800 03006KT 4SM -RA BR OVC015
     FM252100 02006KT 4SM -RA BR OVC007
     FM260300 19002KT 2SM BR OVC003=



000
FTUS42 KRAH 250540
TAFRDU
TAF
KRDU 250540Z 2506/2606 00000KT P6SM SCT250
     FM251100 13002KT P6SM BKN100
     FM251500 12004KT 5SM -RA OVC025
     FM252000 VRB05KT 4SM -RA BR OVC007
     FM260300 VRB03KT 2SM -RA BR OVC005=



000
FTUS42 KRAH 250540
TAFFAY
TAF
KFAY 250540Z 2506/2606 00000KT P6SM BKN080 BKN250
     FM251700 20006KT 4SM -RA BR OVC015
     FM252200 20006KT 3SM -RA BR OVC007=



000
FTUS42 KRAH 250540
TAFGSO
TAF
KGSO 250540Z 2506/2606 13003KT P6SM BKN080
     FM251200 06005KT P6SM -RA OVC050
     FM251600 09005KT 4SM -RA BR OVC007
     FM252300 18006KT 4SM BR OVC003=



000
FTUS42 KRAH 250147 AAA
TAFRDU
TAF AMD
KRDU 250147Z 2502/2524 00000KT P6SM SCT250
     FM251100 13002KT P6SM BKN100
     FM251500 12004KT 5SM -RA OVC030
     FM251900 16004KT 4SM -RA BR OVC007
     FM252300 23005KT 4SM -RA BR OVC007=



000
FTUS42 KRAH 250147 AAA
TAFRDU
TAF AMD
KRDU 250147Z 2502/2524 00000KT P6SM SCT250
     FM251100 13002KT P6SM BKN100
     FM251500 12004KT 5SM -RA OVC030
     FM251900 16004KT 4SM -RA BR OVC007
     FM252300 23005KT 4SM -RA BR OVC007=



000
FTUS42 KRAH 250146 AAA
TAFGSO
TAF AMD
KGSO 250146Z 2502/2524 23005KT P6SM BKN250
     FM250900 13003KT P6SM BKN080
     FM251400 12005KT P6SM -RA OVC030
     FM251700 13005KT 4SM -RA BR OVC007
     FM252300 18011KT 2SM BR OVC003=



000
FTUS42 KRAH 250146 AAA
TAFGSO
TAF AMD
KGSO 250146Z 2502/2524 23005KT P6SM BKN250
     FM250900 13003KT P6SM BKN080
     FM251400 12005KT P6SM -RA OVC030
     FM251700 13005KT 4SM -RA BR OVC007
     FM252300 18011KT 2SM BR OVC003=



000
FTUS42 KRAH 250146 AAA
TAFGSO
TAF AMD
KGSO 250146Z 2502/2524 23005KT P6SM BKN250
     FM250900 13003KT P6SM BKN080
     FM251400 12005KT P6SM -RA OVC030
     FM251700 13005KT 4SM -RA BR OVC007
     FM252300 18011KT 2SM BR OVC003=



000
FTUS42 KRAH 250146 AAA
TAFGSO
TAF AMD
KGSO 250146Z 2502/2524 23005KT P6SM BKN250
     FM250900 13003KT P6SM BKN080
     FM251400 12005KT P6SM -RA OVC030
     FM251700 13005KT 4SM -RA BR OVC007
     FM252300 18011KT 2SM BR OVC003=



000
FTUS42 KRAH 242335
TAFFAY
TAF
KFAY 242335Z 2500/2524 00000KT P6SM BKN250
     FM251700 20006KT 4SM -RA BR OVC015
     FM252200 20006KT 3SM -RA BR OVC007=



000
FTUS42 KRAH 242335
TAFRDU
TAF
KRDU 242335Z 2500/2524 25005KT P6SM BKN250
     FM251100 13002KT P6SM BKN100
     FM251500 12004KT 5SM -RA OVC030
     FM251900 16004KT 4SM -RA BR OVC007
     FM252300 23005KT 4SM -RA BR OVC007=



000
FTUS42 KRAH 242335
TAFRWI
TAF
KRWI 242335Z 2500/2524 26004KT P6SM BKN250
     FM251300 10005KT P6SM OVC060
     FM251800 03006KT 4SM -RA BR OVC015
     FM252100 02006KT 4SM -RA BR OVC007=



000
FTUS42 KRAH 242335
TAFGSO
TAF
KGSO 242335Z 2500/2524 25005KT P6SM BKN250
     FM250900 13003KT P6SM BKN080
     FM251400 12005KT P6SM -RA OVC030
     FM251700 13005KT 4SM -RA BR OVC007
     FM252300 18011KT 2SM BR OVC003=



000
FTUS42 KRAH 242335
TAFINT
TAF
KINT 242335Z 2500/2524 VRB05KT P6SM BKN250
     FM250900 13003KT P6SM BKN080
     FM251400 10004KT P6SM -RA OVC030
     FM251700 09005KT 4SM -RA BR OVC007
     FM252300 18006KT 4SM BR OVC003=



000
FTUS42 KRAH 242335
TAFRDU
TAF
KRDU 242335Z 2500/2524 25005KT P6SM BKN250
     FM251100 13002KT P6SM BKN100
     FM251500 12004KT 5SM -RA OVC030
     FM251900 16004KT 4SM -RA BR OVC007
     FM252300 23005KT 4SM -RA BR OVC007=



000
FTUS42 KRAH 242335
TAFFAY
TAF
KFAY 242335Z 2500/2524 00000KT P6SM BKN250
     FM251700 20006KT 4SM -RA BR OVC015
     FM252200 20006KT 3SM -RA BR OVC007=



000
FTUS42 KRAH 242335
TAFINT
TAF
KINT 242335Z 2500/2524 VRB05KT P6SM BKN250
     FM250900 13003KT P6SM BKN080
     FM251400 10004KT P6SM -RA OVC030
     FM251700 09005KT 4SM -RA BR OVC007
     FM252300 18006KT 4SM BR OVC003=



000
FTUS42 KRAH 242335
TAFRWI
TAF
KRWI 242335Z 2500/2524 26004KT P6SM BKN250
     FM251300 10005KT P6SM OVC060
     FM251800 03006KT 4SM -RA BR OVC015
     FM252100 02006KT 4SM -RA BR OVC007=



000
FTUS42 KRAH 242335
TAFGSO
TAF
KGSO 242335Z 2500/2524 25005KT P6SM BKN250
     FM250900 13003KT P6SM BKN080
     FM251400 12005KT P6SM -RA OVC030
     FM251700 13005KT 4SM -RA BR OVC007
     FM252300 18011KT 2SM BR OVC003=



000
FTUS42 KRAH 241724
TAFRWI
TAF
KRWI 241724Z 2418/2518 31010KT P6SM FEW250
     FM250000 23004KT P6SM SCT250
     FM251300 VRB03KT P6SM BKN100=



000
FTUS42 KRAH 241724
TAFGSO
TAF
KGSO 241724Z 2418/2518 30008KT P6SM SKC
     FM250100 22004KT P6SM FEW250
     FM250900 13003KT P6SM BKN080
     FM251300 16006KT P6SM -RA BKN045 OVC080
     FM251700 16007KT 4SM -RA BR OVC012=



000
FTUS42 KRAH 241724
TAFFAY
TAF
KFAY 241724Z 2418/2518 32008KT P6SM FEW250
     FM250100 23003KT P6SM SCT250
     FM251000 19003KT P6SM BKN100
     FM251700 19007KT P6SM -RA OVC050=



000
FTUS42 KRAH 241724
TAFRDU
TAF
KRDU 241724Z 2418/2518 30009KT P6SM FEW250
     FM250100 23004KT P6SM SCT250
     FM251100 13002KT P6SM BKN100
     FM251700 17006KT P6SM -RA OVC045=



000
FTUS42 KRAH 241724
TAFINT
TAF
KINT 241724Z 2418/2518 30008KT P6SM SKC
     FM250100 22004KT P6SM FEW250
     FM250900 13003KT P6SM BKN080
     FM251300 16006KT P6SM -RA BKN045 OVC080
     FM251700 16007KT 4SM -RA BR OVC012=



000
FTUS42 KRAH 241724
TAFFAY
TAF
KFAY 241724Z 2418/2518 32008KT P6SM FEW250
     FM250100 23003KT P6SM SCT250
     FM251000 19003KT P6SM BKN100
     FM251700 19007KT P6SM -RA OVC050=



000
FTUS42 KRAH 241724
TAFGSO
TAF
KGSO 241724Z 2418/2518 30008KT P6SM SKC
     FM250100 22004KT P6SM FEW250
     FM250900 13003KT P6SM BKN080
     FM251300 16006KT P6SM -RA BKN045 OVC080
     FM251700 16007KT 4SM -RA BR OVC012=



000
FTUS42 KRAH 241724
TAFRWI
TAF
KRWI 241724Z 2418/2518 31010KT P6SM FEW250
     FM250000 23004KT P6SM SCT250
     FM251300 VRB03KT P6SM BKN100=



000
FTUS42 KRAH 241724
TAFRDU
TAF
KRDU 241724Z 2418/2518 30009KT P6SM FEW250
     FM250100 23004KT P6SM SCT250
     FM251100 13002KT P6SM BKN100
     FM251700 17006KT P6SM -RA OVC045=



000
FTUS42 KRAH 241724
TAFINT
TAF
KINT 241724Z 2418/2518 30008KT P6SM SKC
     FM250100 22004KT P6SM FEW250
     FM250900 13003KT P6SM BKN080
     FM251300 16006KT P6SM -RA BKN045 OVC080
     FM251700 16007KT 4SM -RA BR OVC012=



000
FTUS42 KRAH 241724
TAFRWI
TAF
KRWI 241724Z 2418/2518 31010KT P6SM FEW250
     FM250000 23004KT P6SM SCT250
     FM251300 VRB03KT P6SM BKN100=



000
FTUS42 KRAH 241724
TAFRWI
TAF
KRWI 241724Z 2418/2518 31010KT P6SM FEW250
     FM250000 23004KT P6SM SCT250
     FM251300 VRB03KT P6SM BKN100=



000
FTUS42 KRAH 241724
TAFINT
TAF
KINT 241724Z 2418/2518 30008KT P6SM SKC
     FM250100 22004KT P6SM FEW250
     FM250900 13003KT P6SM BKN080
     FM251300 16006KT P6SM -RA BKN045 OVC080
     FM251700 16007KT 4SM -RA BR OVC012=



000
FTUS42 KRAH 241724
TAFFAY
TAF
KFAY 241724Z 2418/2518 32008KT P6SM FEW250
     FM250100 23003KT P6SM SCT250
     FM251000 19003KT P6SM BKN100
     FM251700 19007KT P6SM -RA OVC050=



000
FTUS42 KRAH 241724
TAFFAY
TAF
KFAY 241724Z 2418/2518 32008KT P6SM FEW250
     FM250100 23003KT P6SM SCT250
     FM251000 19003KT P6SM BKN100
     FM251700 19007KT P6SM -RA OVC050=



000
FTUS42 KRAH 241724
TAFRDU
TAF
KRDU 241724Z 2418/2518 30009KT P6SM FEW250
     FM250100 23004KT P6SM SCT250
     FM251100 13002KT P6SM BKN100
     FM251700 17006KT P6SM -RA OVC045=



000
FTUS42 KRAH 241724
TAFINT
TAF
KINT 241724Z 2418/2518 30008KT P6SM SKC
     FM250100 22004KT P6SM FEW250
     FM250900 13003KT P6SM BKN080
     FM251300 16006KT P6SM -RA BKN045 OVC080
     FM251700 16007KT 4SM -RA BR OVC012=



000
FTUS42 KRAH 241724
TAFGSO
TAF
KGSO 241724Z 2418/2518 30008KT P6SM SKC
     FM250100 22004KT P6SM FEW250
     FM250900 13003KT P6SM BKN080
     FM251300 16006KT P6SM -RA BKN045 OVC080
     FM251700 16007KT 4SM -RA BR OVC012=



000
FTUS42 KRAH 241724
TAFRDU
TAF
KRDU 241724Z 2418/2518 30009KT P6SM FEW250
     FM250100 23004KT P6SM SCT250
     FM251100 13002KT P6SM BKN100
     FM251700 17006KT P6SM -RA OVC045=



000
FTUS42 KRAH 241724
TAFGSO
TAF
KGSO 241724Z 2418/2518 30008KT P6SM SKC
     FM250100 22004KT P6SM FEW250
     FM250900 13003KT P6SM BKN080
     FM251300 16006KT P6SM -RA BKN045 OVC080
     FM251700 16007KT 4SM -RA BR OVC012=



000
FTUS42 KRAH 241120
TAFFAY
TAF
KFAY 241120Z 2412/2512 34010KT P6SM FEW250
     FM242300 25004KT P6SM SCT100 BKN250=



000
FTUS42 KRAH 241120
TAFINT
TAF
KINT 241120Z 2412/2512 32011KT P6SM FEW250
     FM250000 VRB03KT P6SM SCT070 BKN250=



000
FTUS42 KRAH 241120
TAFFAY
TAF
KFAY 241120Z 2412/2512 34010KT P6SM FEW250
     FM242300 25004KT P6SM SCT100 BKN250=



000
FTUS42 KRAH 241120
TAFRWI
TAF
KRWI 241120Z 2412/2512 32010KT P6SM FEW250
     FM242200 29005KT P6SM SCT250=



000
FTUS42 KRAH 241120
TAFRWI
TAF
KRWI 241120Z 2412/2512 32010KT P6SM FEW250
     FM242200 29005KT P6SM SCT250=



000
FTUS42 KRAH 241120
TAFRDU
TAF
KRDU 241120Z 2412/2512 33010KT P6SM FEW250
     FM242300 VRB03KT P6SM SCT090=



000
FTUS42 KRAH 241120
TAFRWI
TAF
KRWI 241120Z 2412/2512 32010KT P6SM FEW250
     FM242200 29005KT P6SM SCT250=



000
FTUS42 KRAH 241120
TAFGSO
TAF
KGSO 241120Z 2412/2512 32011KT P6SM FEW250
     FM250000 VRB03KT P6SM SCT070 BKN250=



000
FTUS42 KRAH 241120
TAFFAY
TAF
KFAY 241120Z 2412/2512 34010KT P6SM FEW250
     FM242300 25004KT P6SM SCT100 BKN250=



000
FTUS42 KRAH 241120
TAFRWI
TAF
KRWI 241120Z 2412/2512 32010KT P6SM FEW250
     FM242200 29005KT P6SM SCT250=



000
FTUS42 KRAH 241120
TAFGSO
TAF
KGSO 241120Z 2412/2512 32011KT P6SM FEW250
     FM250000 VRB03KT P6SM SCT070 BKN250=



000
FTUS42 KRAH 241120
TAFINT
TAF
KINT 241120Z 2412/2512 32011KT P6SM FEW250
     FM250000 VRB03KT P6SM SCT070 BKN250=



000
FTUS42 KRAH 241120
TAFINT
TAF
KINT 241120Z 2412/2512 32011KT P6SM FEW250
     FM250000 VRB03KT P6SM SCT070 BKN250=



000
FTUS42 KRAH 241120
TAFRDU
TAF
KRDU 241120Z 2412/2512 33010KT P6SM FEW250
     FM242300 VRB03KT P6SM SCT090=



000
FTUS42 KRAH 241120
TAFGSO
TAF
KGSO 241120Z 2412/2512 32011KT P6SM FEW250
     FM250000 VRB03KT P6SM SCT070 BKN250=



000
FTUS42 KRAH 241120
TAFINT
TAF
KINT 241120Z 2412/2512 32011KT P6SM FEW250
     FM250000 VRB03KT P6SM SCT070 BKN250=



000
FTUS42 KRAH 241120
TAFRDU
TAF
KRDU 241120Z 2412/2512 33010KT P6SM FEW250
     FM242300 VRB03KT P6SM SCT090=



000
FTUS42 KRAH 241120
TAFFAY
TAF
KFAY 241120Z 2412/2512 34010KT P6SM FEW250
     FM242300 25004KT P6SM SCT100 BKN250=



000
FTUS42 KRAH 241120
TAFGSO
TAF
KGSO 241120Z 2412/2512 32011KT P6SM FEW250
     FM250000 VRB03KT P6SM SCT070 BKN250=



000
FTUS42 KRAH 241120
TAFRDU
TAF
KRDU 241120Z 2412/2512 33010KT P6SM FEW250
     FM242300 VRB03KT P6SM SCT090=



000
FTUS42 KRAH 240933 AAA
TAFRDU
TAF AMD
KRDU 240933Z 2410/2506 VRB04KT P6SM SKC
     FM241300 33010KT P6SM FEW250
     FM242100 28008KT P6SM SCT250=



000
FTUS42 KRAH 240933 AAA
TAFRDU
TAF AMD
KRDU 240933Z 2410/2506 VRB04KT P6SM SKC
     FM241300 33010KT P6SM FEW250
     FM242100 28008KT P6SM SCT250=



000
FTUS42 KRAH 240933 AAA
TAFGSO
TAF AMD
KGSO 240933Z 2410/2506 33005KT P6SM SKC
     FM241500 32011KT P6SM FEW250
     FM250000 25008KT P6SM SCT070 BKN250=



000
FTUS42 KRAH 240541
TAFGSO
TAF
KGSO 240541Z 2406/2506 33005KT P6SM SKC
     FM241500 32011KT P6SM FEW250
     FM250000 25008KT P6SM SCT070 BKN250=



000
FTUS42 KRAH 240541
TAFFAY
TAF
KFAY 240541Z 2406/2506 VRB06KT P6SM SKC
     FM241300 34010KT P6SM FEW250
     FM242100 29008KT P6SM SCT250=



000
FTUS42 KRAH 240541
TAFRWI
TAF
KRWI 240541Z 2406/2506 VRB05KT P6SM SKC
     FM241300 32010KT P6SM FEW250
     FM242200 29007KT P6SM SCT250=



000
FTUS42 KRAH 240541
TAFINT
TAF
KINT 240541Z 2406/2506 33005KT P6SM SKC
     FM241500 32011KT P6SM FEW250
     FM250000 25008KT P6SM SCT070 BKN250=



000
FTUS42 KRAH 240541
TAFRDU
TAF
KRDU 240541Z 2406/2506 VRB04KT P6SM SKC
     FM241300 33010KT P6SM FEW250
     FM242100 28008KT P6SM SCT250=



000
FTUS42 KRAH 240541
TAFGSO
TAF
KGSO 240541Z 2406/2506 33005KT P6SM SKC
     FM241500 32011KT P6SM FEW250
     FM250000 25008KT P6SM SCT070 BKN250=



000
FTUS42 KRAH 240541
TAFFAY
TAF
KFAY 240541Z 2406/2506 VRB06KT P6SM SKC
     FM241300 34010KT P6SM FEW250
     FM242100 29008KT P6SM SCT250=



000
FTUS42 KRAH 240541
TAFRWI
TAF
KRWI 240541Z 2406/2506 VRB05KT P6SM SKC
     FM241300 32010KT P6SM FEW250
     FM242200 29007KT P6SM SCT250=



000
FTUS42 KRAH 240541
TAFINT
TAF
KINT 240541Z 2406/2506 33005KT P6SM SKC
     FM241500 32011KT P6SM FEW250
     FM250000 25008KT P6SM SCT070 BKN250=



000
FTUS42 KRAH 240541
TAFRDU
TAF
KRDU 240541Z 2406/2506 VRB04KT P6SM SKC
     FM241300 33010KT P6SM FEW250
     FM242100 28008KT P6SM SCT250=



000
FTUS42 KRAH 240207 AAA
TAFRDU
TAF AMD
KRDU 240207Z 2402/2424 VRB04KT P6SM SKC
     FM241300 33010KT P6SM FEW250
     FM242100 28008KT P6SM SCT250=



000
FTUS42 KRAH 240207 AAA
TAFRDU
TAF AMD
KRDU 240207Z 2402/2424 VRB04KT P6SM SKC
     FM241300 33010KT P6SM FEW250
     FM242100 28008KT P6SM SCT250=



000
FTUS42 KRAH 240207 AAA
TAFINT
TAF AMD
KINT 240207Z 2402/2424 33005KT P6SM SKC
     FM241500 32010G17KT P6SM FEW250
     FM242000 27008KT P6SM SCT250=



000
FTUS42 KRAH 240207 AAA
TAFINT
TAF AMD
KINT 240207Z 2402/2424 33005KT P6SM SKC
     FM241500 32010G17KT P6SM FEW250
     FM242000 27008KT P6SM SCT250=



000
FTUS42 KRAH 240206 AAA
TAFGSO
TAF AMD
KGSO 240206Z 2402/2424 33005KT P6SM SKC
     FM241500 32010G17KT P6SM FEW250
     FM242000 27008KT P6SM SCT250=



000
FTUS42 KRAH 240206 AAA
TAFGSO
TAF AMD
KGSO 240206Z 2402/2424 33005KT P6SM SKC
     FM241500 32010G17KT P6SM FEW250
     FM242000 27008KT P6SM SCT250=



000
FTUS42 KRAH 232329
TAFINT
TAF
KINT 232329Z 2400/2424 29007KT P6SM SKC
     FM241500 32010G17KT P6SM FEW250
     FM242000 27008KT P6SM SCT250=



000
FTUS42 KRAH 232329
TAFRWI
TAF
KRWI 232329Z 2400/2424 VRB05KT P6SM SKC
     FM241300 32010KT P6SM FEW250
     FM242200 29007KT P6SM SCT250=



000
FTUS42 KRAH 232329
TAFRDU
TAF
KRDU 232329Z 2400/2424 VRB05KT P6SM SKC
     FM241300 33010KT P6SM FEW250
     FM242100 28008KT P6SM SCT250=



000
FTUS42 KRAH 232329
TAFFAY
TAF
KFAY 232329Z 2400/2424 VRB06KT P6SM SKC
     FM241300 34013KT P6SM FEW250
     FM242100 29008KT P6SM SCT250=



000
FTUS42 KRAH 232329
TAFGSO
TAF
KGSO 232329Z 2400/2424 29007KT P6SM SKC
     FM241500 32010G17KT P6SM FEW250
     FM242000 27008KT P6SM SCT250=



000
FTUS42 KRAH 232329
TAFINT
TAF
KINT 232329Z 2400/2424 29007KT P6SM SKC
     FM241500 32010G17KT P6SM FEW250
     FM242000 27008KT P6SM SCT250=



000
FTUS42 KRAH 232329
TAFRDU
TAF
KRDU 232329Z 2400/2424 VRB05KT P6SM SKC
     FM241300 33010KT P6SM FEW250
     FM242100 28008KT P6SM SCT250=



000
FTUS42 KRAH 232329
TAFRWI
TAF
KRWI 232329Z 2400/2424 VRB05KT P6SM SKC
     FM241300 32010KT P6SM FEW250
     FM242200 29007KT P6SM SCT250=



000
FTUS42 KRAH 232329
TAFFAY
TAF
KFAY 232329Z 2400/2424 VRB06KT P6SM SKC
     FM241300 34013KT P6SM FEW250
     FM242100 29008KT P6SM SCT250=



000
FTUS42 KRAH 232329
TAFGSO
TAF
KGSO 232329Z 2400/2424 29007KT P6SM SKC
     FM241500 32010G17KT P6SM FEW250
     FM242000 27008KT P6SM SCT250=



000
FTUS42 KRAH 232329
TAFINT
TAF
KINT 232329Z 2400/2424 29007KT P6SM SKC
     FM241500 32010G17KT P6SM FEW250
     FM242000 27008KT P6SM SCT250=



000
FTUS42 KRAH 232329
TAFGSO
TAF
KGSO 232329Z 2400/2424 29007KT P6SM SKC
     FM241500 32010G17KT P6SM FEW250
     FM242000 27008KT P6SM SCT250=



000
FTUS42 KRAH 232329
TAFFAY
TAF
KFAY 232329Z 2400/2424 VRB06KT P6SM SKC
     FM241300 34013KT P6SM FEW250
     FM242100 29008KT P6SM SCT250=



000
FTUS42 KRAH 232329
TAFGSO
TAF
KGSO 232329Z 2400/2424 29007KT P6SM SKC
     FM241500 32010G17KT P6SM FEW250
     FM242000 27008KT P6SM SCT250=



000
FTUS42 KRAH 232329
TAFRWI
TAF
KRWI 232329Z 2400/2424 VRB05KT P6SM SKC
     FM241300 32010KT P6SM FEW250
     FM242200 29007KT P6SM SCT250=



000
FTUS42 KRAH 232329
TAFINT
TAF
KINT 232329Z 2400/2424 29007KT P6SM SKC
     FM241500 32010G17KT P6SM FEW250
     FM242000 27008KT P6SM SCT250=



000
FTUS42 KRAH 232329
TAFFAY
TAF
KFAY 232329Z 2400/2424 VRB06KT P6SM SKC
     FM241300 34013KT P6SM FEW250
     FM242100 29008KT P6SM SCT250=



000
FTUS42 KRAH 232329
TAFRDU
TAF
KRDU 232329Z 2400/2424 VRB05KT P6SM SKC
     FM241300 33010KT P6SM FEW250
     FM242100 28008KT P6SM SCT250=



000
FTUS42 KRAH 232329
TAFRDU
TAF
KRDU 232329Z 2400/2424 VRB05KT P6SM SKC
     FM241300 33010KT P6SM FEW250
     FM242100 28008KT P6SM SCT250=



000
FTUS42 KRAH 232329
TAFRWI
TAF
KRWI 232329Z 2400/2424 VRB05KT P6SM SKC
     FM241300 32010KT P6SM FEW250
     FM242200 29007KT P6SM SCT250=



000
FTUS42 KRAH 232206 AAA
TAFINT
TAF AMD
KINT 232206Z 2322/2418 28012KT P6SM SKC
      TEMPO 2322/2324 31012G17KT
     FM240000 31006KT P6SM SKC
     FM241400 33009KT P6SM SKC=



000
FTUS42 KRAH 232206 AAA
TAFINT
TAF AMD
KINT 232206Z 2322/2418 28012KT P6SM SKC
      TEMPO 2322/2324 31012G17KT
     FM240000 31006KT P6SM SKC
     FM241400 33009KT P6SM SKC=



000
FTUS42 KRAH 232206 AAA
TAFINT
TAF AMD
KINT 232206Z 2322/2418 28012KT P6SM SKC
      TEMPO 2322/2324 31012G17KT
     FM240000 31006KT P6SM SKC
     FM241400 33009KT P6SM SKC=



000
FTUS42 KRAH 232206 AAA
TAFINT
TAF AMD
KINT 232206Z 2322/2418 28012KT P6SM SKC
      TEMPO 2322/2324 31012G17KT
     FM240000 31006KT P6SM SKC
     FM241400 33009KT P6SM SKC=



000
FTUS42 KRAH 232112 AAB
TAFGSO
TAF AMD
KGSO 232112Z 2321/2418 29012G18KT P6SM SKC
     FM240000 29007KT P6SM SKC
     FM241400 32011KT P6SM SKC=



000
FTUS42 KRAH 232112 AAB
TAFGSO
TAF AMD
KGSO 232112Z 2321/2418 29012G18KT P6SM SKC
     FM240000 29007KT P6SM SKC
     FM241400 32011KT P6SM SKC=



000
FTUS42 KRAH 232112 AAB
TAFGSO
TAF AMD
KGSO 232112Z 2321/2418 29012G18KT P6SM SKC
     FM240000 29007KT P6SM SKC
     FM241400 32011KT P6SM SKC=



000
FTUS42 KRAH 232112 AAB
TAFGSO
TAF AMD
KGSO 232112Z 2321/2418 29012G18KT P6SM SKC
     FM240000 29007KT P6SM SKC
     FM241400 32011KT P6SM SKC=



000
FTUS42 KRAH 231959 AAA
TAFRWI
TAF AMD
KRWI 231959Z 2320/2418 27012KT P6SM FEW060
      TEMPO 2320/2322 24010G18KT
     FM240000 28007KT P6SM SKC
     FM240400 32007KT P6SM SKC
     FM241300 33010KT P6SM SKC=



000
FTUS42 KRAH 231959 AAA
TAFRWI
TAF AMD
KRWI 231959Z 2320/2418 27012KT P6SM FEW060
      TEMPO 2320/2322 24010G18KT
     FM240000 28007KT P6SM SKC
     FM240400 32007KT P6SM SKC
     FM241300 33010KT P6SM SKC=



000
FTUS42 KRAH 231937 AAA
TAFRDU
TAF AMD
KRDU 231937Z 2320/2418 28010KT P6SM SKC
      TEMPO 2320/2322 27012G22KT
     FM240100 31005KT P6SM SKC
     FM241300 33010KT P6SM SKC=



000
FTUS42 KRAH 231937 AAA
TAFRDU
TAF AMD
KRDU 231937Z 2320/2418 28010KT P6SM SKC
      TEMPO 2320/2322 27012G22KT
     FM240100 31005KT P6SM SKC
     FM241300 33010KT P6SM SKC=



000
FTUS42 KRAH 231936 AAA
TAFGSO
TAF AMD
KGSO 231936Z 2320/2418 28012KT P6SM SKC
      TEMPO 2320/2322 29013G23KT
     FM240000 31006KT P6SM SKC
     FM241400 33009KT P6SM SKC=



000
FTUS42 KRAH 231936 AAA
TAFGSO
TAF AMD
KGSO 231936Z 2320/2418 28012KT P6SM SKC
      TEMPO 2320/2322 29013G23KT
     FM240000 31006KT P6SM SKC
     FM241400 33009KT P6SM SKC=



000
FTUS42 KRAH 231726
TAFGSO
TAF
KGSO 231726Z 2318/2418 28012KT P6SM SKC
     FM240000 31006KT P6SM SKC
     FM241400 33009KT P6SM SKC=



000
FTUS42 KRAH 231726
TAFINT
TAF
KINT 231726Z 2318/2418 28012KT P6SM SKC
     FM240000 31006KT P6SM SKC
     FM241400 33009KT P6SM SKC=



000
FTUS42 KRAH 231726
TAFINT
TAF
KINT 231726Z 2318/2418 28012KT P6SM SKC
     FM240000 31006KT P6SM SKC
     FM241400 33009KT P6SM SKC=



000
FTUS42 KRAH 231726
TAFGSO
TAF
KGSO 231726Z 2318/2418 28012KT P6SM SKC
     FM240000 31006KT P6SM SKC
     FM241400 33009KT P6SM SKC=



000
FTUS42 KRAH 231726
TAFFAY
TAF
KFAY 231726Z 2318/2418 29012KT P6SM FEW060
     FM240300 32007KT P6SM SKC
     FM241300 34010KT P6SM SKC=



000
FTUS42 KRAH 231726
TAFFAY
TAF
KFAY 231726Z 2318/2418 29012KT P6SM FEW060
     FM240300 32007KT P6SM SKC
     FM241300 34010KT P6SM SKC=



000
FTUS42 KRAH 231726
TAFRWI
TAF
KRWI 231726Z 2318/2418 27012KT P6SM FEW060
     FM240000 28007KT P6SM SKC
     FM240400 32007KT P6SM SKC
     FM241300 33010KT P6SM SKC=



000
FTUS42 KRAH 231726
TAFRDU
TAF
KRDU 231726Z 2318/2418 28010KT P6SM SKC
     FM240100 31005KT P6SM SKC
     FM241300 33010KT P6SM SKC=



000
FTUS42 KRAH 231726
TAFRDU
TAF
KRDU 231726Z 2318/2418 28010KT P6SM SKC
     FM240100 31005KT P6SM SKC
     FM241300 33010KT P6SM SKC=



000
FTUS42 KRAH 231726
TAFINT
TAF
KINT 231726Z 2318/2418 28012KT P6SM SKC
     FM240000 31006KT P6SM SKC
     FM241400 33009KT P6SM SKC=



000
FTUS42 KRAH 231726
TAFRWI
TAF
KRWI 231726Z 2318/2418 27012KT P6SM FEW060
     FM240000 28007KT P6SM SKC
     FM240400 32007KT P6SM SKC
     FM241300 33010KT P6SM SKC=



000
FTUS42 KRAH 231726
TAFRDU
TAF
KRDU 231726Z 2318/2418 28010KT P6SM SKC
     FM240100 31005KT P6SM SKC
     FM241300 33010KT P6SM SKC=



000
FTUS42 KRAH 231726
TAFINT
TAF
KINT 231726Z 2318/2418 28012KT P6SM SKC
     FM240000 31006KT P6SM SKC
     FM241400 33009KT P6SM SKC=



000
FTUS42 KRAH 231726
TAFFAY
TAF
KFAY 231726Z 2318/2418 29012KT P6SM FEW060
     FM240300 32007KT P6SM SKC
     FM241300 34010KT P6SM SKC=



000
FTUS42 KRAH 231726
TAFGSO
TAF
KGSO 231726Z 2318/2418 28012KT P6SM SKC
     FM240000 31006KT P6SM SKC
     FM241400 33009KT P6SM SKC=



000
FTUS42 KRAH 231726
TAFRDU
TAF
KRDU 231726Z 2318/2418 28010KT P6SM SKC
     FM240100 31005KT P6SM SKC
     FM241300 33010KT P6SM SKC=



000
FTUS42 KRAH 231726
TAFRWI
TAF
KRWI 231726Z 2318/2418 27012KT P6SM FEW060
     FM240000 28007KT P6SM SKC
     FM240400 32007KT P6SM SKC
     FM241300 33010KT P6SM SKC=



000
FTUS42 KRAH 231726
TAFFAY
TAF
KFAY 231726Z 2318/2418 29012KT P6SM FEW060
     FM240300 32007KT P6SM SKC
     FM241300 34010KT P6SM SKC=



000
FTUS42 KRAH 231726
TAFGSO
TAF
KGSO 231726Z 2318/2418 28012KT P6SM SKC
     FM240000 31006KT P6SM SKC
     FM241400 33009KT P6SM SKC=



000
FTUS42 KRAH 231726
TAFRWI
TAF
KRWI 231726Z 2318/2418 27012KT P6SM FEW060
     FM240000 28007KT P6SM SKC
     FM240400 32007KT P6SM SKC
     FM241300 33010KT P6SM SKC=



000
FTUS42 KRAH 231506 AAB
TAFFAY
TAF AMD
KFAY 231506Z 2315/2412 35009G16KT P6SM FEW060
     FM231700 30008G18KT P6SM SKC
     FM240000 30006KT P6SM SKC=



000
FTUS42 KRAH 231506 AAB
TAFFAY
TAF AMD
KFAY 231506Z 2315/2412 35009G16KT P6SM FEW060
     FM231700 30008G18KT P6SM SKC
     FM240000 30006KT P6SM SKC=



000
FTUS42 KRAH 231506 AAB
TAFFAY
TAF AMD
KFAY 231506Z 2315/2412 35009G16KT P6SM FEW060
     FM231700 30008G18KT P6SM SKC
     FM240000 30006KT P6SM SKC=



000
FTUS42 KRAH 231506 AAB
TAFFAY
TAF AMD
KFAY 231506Z 2315/2412 35009G16KT P6SM FEW060
     FM231700 30008G18KT P6SM SKC
     FM240000 30006KT P6SM SKC=



000
FTUS42 KRAH 231422 AAA
TAFRWI
TAF AMD
KRWI 231422Z 2314/2412 32008G16KT P6SM FEW060
     FM231600 29010G20KT P6SM SKC
     FM232300 28006KT P6SM SKC=



000
FTUS42 KRAH 231422 AAA
TAFRWI
TAF AMD
KRWI 231422Z 2314/2412 32008G16KT P6SM FEW060
     FM231600 29010G20KT P6SM SKC
     FM232300 28006KT P6SM SKC=



000
FTUS42 KRAH 231421 AAA
TAFRDU
TAF AMD
KRDU 231421Z 2314/2412 32009G17KT P6SM FEW070
     FM240000 33004KT P6SM SKC=



000
FTUS42 KRAH 231421 AAA
TAFRDU
TAF AMD
KRDU 231421Z 2314/2412 32009G17KT P6SM FEW070
     FM240000 33004KT P6SM SKC=



000
FTUS42 KRAH 231420 AAA
TAFINT
TAF AMD
KINT 231420Z 2314/2412 30008G19KT P6SM SKC
     FM240000 29004KT P6SM SKC=



000
FTUS42 KRAH 231420 AAA
TAFINT
TAF AMD
KINT 231420Z 2314/2412 30008G19KT P6SM SKC
     FM240000 29004KT P6SM SKC=



000
FTUS42 KRAH 231213 AAA
TAFFAY
TAF AMD
KFAY 231213Z 2312/2412 35009KT P6SM BKN050
      TEMPO 2312/2315 35015G25KT
     FM231500 29008G18KT P6SM SKC
     FM240000 30006KT P6SM SKC=



000
FTUS42 KRAH 231213 AAA
TAFFAY
TAF AMD
KFAY 231213Z 2312/2412 35009KT P6SM BKN050
      TEMPO 2312/2315 35015G25KT
     FM231500 29008G18KT P6SM SKC
     FM240000 30006KT P6SM SKC=



000
FTUS42 KRAH 231213 AAA
TAFFAY
TAF AMD
KFAY 231213Z 2312/2412 35009KT P6SM BKN050
      TEMPO 2312/2315 35015G25KT
     FM231500 29008G18KT P6SM SKC
     FM240000 30006KT P6SM SKC=



000
FTUS42 KRAH 231213 AAA
TAFFAY
TAF AMD
KFAY 231213Z 2312/2412 35009KT P6SM BKN050
      TEMPO 2312/2315 35015G25KT
     FM231500 29008G18KT P6SM SKC
     FM240000 30006KT P6SM SKC=



000
FTUS42 KRAH 231129
TAFRWI
TAF
KRWI 231129Z 2312/2412 32006KT P6SM BKN050
     FM231500 29010G20KT P6SM SKC=



000
FTUS42 KRAH 231129
TAFINT
TAF
KINT 231129Z 2312/2412 35009KT P6SM SCT060
     FM231400 29006G19KT P6SM SCT250
     FM240000 29004KT P6SM SKC=



000
FTUS42 KRAH 231129
TAFRDU
TAF
KRDU 231129Z 2312/2412 35007KT P6SM SCT070
     FM231500 30009G17KT P6SM SCT070
     FM240000 33004KT P6SM SKC=



000
FTUS42 KRAH 231129
TAFFAY
TAF
KFAY 231129Z 2312/2412 32006KT P6SM BKN050
     FM231500 29008G18KT P6SM SKC
     FM240000 30006KT P6SM SKC=



000
FTUS42 KRAH 231129
TAFGSO
TAF
KGSO 231129Z 2312/2412 35009KT P6SM SCT060
     FM231400 29006G19KT P6SM SCT250
     FM240000 33004KT P6SM SKC=



000
FTUS42 KRAH 231129
TAFFAY
TAF
KFAY 231129Z 2312/2412 32006KT P6SM BKN050
     FM231500 29008G18KT P6SM SKC
     FM240000 30006KT P6SM SKC=



000
FTUS42 KRAH 231129
TAFGSO
TAF
KGSO 231129Z 2312/2412 35009KT P6SM SCT060
     FM231400 29006G19KT P6SM SCT250
     FM240000 33004KT P6SM SKC=



000
FTUS42 KRAH 231129
TAFRWI
TAF
KRWI 231129Z 2312/2412 32006KT P6SM BKN050
     FM231500 29010G20KT P6SM SKC=



000
FTUS42 KRAH 231129
TAFINT
TAF
KINT 231129Z 2312/2412 35009KT P6SM SCT060
     FM231400 29006G19KT P6SM SCT250
     FM240000 29004KT P6SM SKC=



000
FTUS42 KRAH 231129
TAFRDU
TAF
KRDU 231129Z 2312/2412 35007KT P6SM SCT070
     FM231500 30009G17KT P6SM SCT070
     FM240000 33004KT P6SM SKC=



000
FTUS42 KRAH 230907 AAA
TAFRDU
TAF AMD
KRDU 230907Z 2309/2406 35007KT P6SM SCT070
     FM231500 30009G17KT P6SM SCT070
     FM240000 29007KT P6SM SKC=



000
FTUS42 KRAH 230907 AAA
TAFINT
TAF AMD
KINT 230907Z 2309/2406 35009KT P6SM SCT060
     FM231300 29006G20KT P6SM SCT250
     FM240000 29006KT P6SM SKC=



000
FTUS42 KRAH 230907 AAA
TAFINT
TAF AMD
KINT 230907Z 2309/2406 35009KT P6SM SCT060
     FM231300 29006G20KT P6SM SCT250
     FM240000 29006KT P6SM SKC=



000
FTUS42 KRAH 230907 AAA
TAFRDU
TAF AMD
KRDU 230907Z 2309/2406 35007KT P6SM SCT070
     FM231500 30009G17KT P6SM SCT070
     FM240000 29007KT P6SM SKC=



000
FTUS42 KRAH 230907 AAA
TAFINT
TAF AMD
KINT 230907Z 2309/2406 35009KT P6SM SCT060
     FM231300 29006G20KT P6SM SCT250
     FM240000 29006KT P6SM SKC=



000
FTUS42 KRAH 230907 AAA
TAFRDU
TAF AMD
KRDU 230907Z 2309/2406 35007KT P6SM SCT070
     FM231500 30009G17KT P6SM SCT070
     FM240000 29007KT P6SM SKC=



000
FTUS42 KRAH 230907 AAA
TAFRDU
TAF AMD
KRDU 230907Z 2309/2406 35007KT P6SM SCT070
     FM231500 30009G17KT P6SM SCT070
     FM240000 29007KT P6SM SKC=



000
FTUS42 KRAH 230907 AAA
TAFINT
TAF AMD
KINT 230907Z 2309/2406 35009KT P6SM SCT060
     FM231300 29006G20KT P6SM SCT250
     FM240000 29006KT P6SM SKC=



000
FTUS42 KRAH 230906 AAA
TAFGSO
TAF AMD
KGSO 230906Z 2309/2406 35009KT P6SM SCT060
     FM231300 29006G20KT P6SM SCT250
     FM240000 29007KT P6SM SKC=



000
FTUS42 KRAH 230906 AAA
TAFGSO
TAF AMD
KGSO 230906Z 2309/2406 35009KT P6SM SCT060
     FM231300 29006G20KT P6SM SCT250
     FM240000 29007KT P6SM SKC=



000
FTUS42 KRAH 230906 AAA
TAFGSO
TAF AMD
KGSO 230906Z 2309/2406 35009KT P6SM SCT060
     FM231300 29006G20KT P6SM SCT250
     FM240000 29007KT P6SM SKC=



000
FTUS42 KRAH 230906 AAA
TAFGSO
TAF AMD
KGSO 230906Z 2309/2406 35009KT P6SM SCT060
     FM231300 29006G20KT P6SM SCT250
     FM240000 29007KT P6SM SKC=



000
FTUS42 KRAH 230540
TAFRDU
TAF
KRDU 230540Z 2306/2406 30007KT P6SM BKN070
     FM231500 30009G17KT P6SM SCT070
     FM240000 29007KT P6SM SKC=



000
FTUS42 KRAH 230540
TAFFAY
TAF
KFAY 230540Z 2306/2406 23011KT P6SM SKC
     FM230900 32006KT P6SM BKN050
     FM231500 29008G18KT P6SM SKC
     FM240000 30006KT P6SM SKC=



000
FTUS42 KRAH 230540
TAFRWI
TAF
KRWI 230540Z 2306/2406 29004KT P6SM OVC080
     FM230800 32006KT P6SM BKN050
     FM231300 29010G20KT P6SM SKC=



000
FTUS42 KRAH 230540
TAFGSO
TAF
KGSO 230540Z 2306/2406 27009KT P6SM BKN100
     FM231300 30006G20KT P6SM SCT250
     FM240000 29007KT P6SM SKC=



000
FTUS42 KRAH 230540
TAFINT
TAF
KINT 230540Z 2306/2406 27006KT P6SM SCT050
     FM231300 30006G20KT P6SM SCT250
     FM240000 29006KT P6SM SKC=



000
FTUS42 KRAH 230540
TAFFAY
TAF
KFAY 230540Z 2306/2406 23011KT P6SM SKC
     FM230900 32006KT P6SM BKN050
     FM231500 29008G18KT P6SM SKC
     FM240000 30006KT P6SM SKC=



000
FTUS42 KRAH 230540
TAFINT
TAF
KINT 230540Z 2306/2406 27006KT P6SM SCT050
     FM231300 30006G20KT P6SM SCT250
     FM240000 29006KT P6SM SKC=



000
FTUS42 KRAH 230540
TAFRDU
TAF
KRDU 230540Z 2306/2406 30007KT P6SM BKN070
     FM231500 30009G17KT P6SM SCT070
     FM240000 29007KT P6SM SKC=



000
FTUS42 KRAH 230540
TAFRWI
TAF
KRWI 230540Z 2306/2406 29004KT P6SM OVC080
     FM230800 32006KT P6SM BKN050
     FM231300 29010G20KT P6SM SKC=



000
FTUS42 KRAH 230540
TAFGSO
TAF
KGSO 230540Z 2306/2406 27009KT P6SM BKN100
     FM231300 30006G20KT P6SM SCT250
     FM240000 29007KT P6SM SKC=



000
FTUS42 KRAH 230540
TAFGSO
TAF
KGSO 230540Z 2306/2406 27009KT P6SM BKN100
     FM231300 30006G20KT P6SM SCT250
     FM240000 29007KT P6SM SKC=



000
FTUS42 KRAH 230540
TAFINT
TAF
KINT 230540Z 2306/2406 27006KT P6SM SCT050
     FM231300 30006G20KT P6SM SCT250
     FM240000 29006KT P6SM SKC=



000
FTUS42 KRAH 230540
TAFGSO
TAF
KGSO 230540Z 2306/2406 27009KT P6SM BKN100
     FM231300 30006G20KT P6SM SCT250
     FM240000 29007KT P6SM SKC=



000
FTUS42 KRAH 230540
TAFRWI
TAF
KRWI 230540Z 2306/2406 29004KT P6SM OVC080
     FM230800 32006KT P6SM BKN050
     FM231300 29010G20KT P6SM SKC=



000
FTUS42 KRAH 230540
TAFRDU
TAF
KRDU 230540Z 2306/2406 30007KT P6SM BKN070
     FM231500 30009G17KT P6SM SCT070
     FM240000 29007KT P6SM SKC=



000
FTUS42 KRAH 230540
TAFFAY
TAF
KFAY 230540Z 2306/2406 23011KT P6SM SKC
     FM230900 32006KT P6SM BKN050
     FM231500 29008G18KT P6SM SKC
     FM240000 30006KT P6SM SKC=



000
FTUS42 KRAH 230540
TAFINT
TAF
KINT 230540Z 2306/2406 27006KT P6SM SCT050
     FM231300 30006G20KT P6SM SCT250
     FM240000 29006KT P6SM SKC=



000
FTUS42 KRAH 230540
TAFFAY
TAF
KFAY 230540Z 2306/2406 23011KT P6SM SKC
     FM230900 32006KT P6SM BKN050
     FM231500 29008G18KT P6SM SKC
     FM240000 30006KT P6SM SKC=



000
FTUS42 KRAH 230540
TAFRDU
TAF
KRDU 230540Z 2306/2406 30007KT P6SM BKN070
     FM231500 30009G17KT P6SM SCT070
     FM240000 29007KT P6SM SKC=



000
FTUS42 KRAH 230540
TAFRWI
TAF
KRWI 230540Z 2306/2406 29004KT P6SM OVC080
     FM230800 32006KT P6SM BKN050
     FM231300 29010G20KT P6SM SKC=



000
FTUS42 KRAH 230201 AAA
TAFGSO
TAF AMD
KGSO 230201Z 2302/2324 27009KT P6SM BKN100
     FM231300 30006G18KT P6SM SCT250=



000
FTUS42 KRAH 230201 AAA
TAFRDU
TAF AMD
KRDU 230201Z 2302/2324 24007KT P6SM BKN250
     FM230700 30007KT P6SM BKN070
     FM231500 30009G17KT P6SM SCT070=



000
FTUS42 KRAH 230201 AAA
TAFRDU
TAF AMD
KRDU 230201Z 2302/2324 24007KT P6SM BKN250
     FM230700 30007KT P6SM BKN070
     FM231500 30009G17KT P6SM SCT070=



000
FTUS42 KRAH 230025 CCA
TAFRWI
TAF COR
KRWI 230025Z 2300/2324 21003KT P6SM SKC
     FM230700 29004KT P6SM OVC080
     FM231300 29010G20KT P6SM SKC=



000
FTUS42 KRAH 230025 CCA
TAFRWI
TAF COR
KRWI 230025Z 2300/2324 21003KT P6SM SKC
     FM230700 29004KT P6SM OVC080
     FM231300 29010G20KT P6SM SKC=



000
FTUS42 KRAH 230025 CCA
TAFRWI
TAF COR
KRWI 230025Z 2300/2324 21003KT P6SM SKC
     FM230700 29004KT P6SM OVC080
     FM231300 29010G20KT P6SM SKC=



000
FTUS42 KRAH 230025 CCA
TAFRWI
TAF COR
KRWI 230025Z 2300/2324 21003KT P6SM SKC
     FM230700 29004KT P6SM OVC080
     FM231300 29010G20KT P6SM SKC=



000
FTUS42 KRAH 230024 CCA
TAFINT
TAF COR
KINT 230024Z 2300/2324 27006KT P6SM SCT050
     FM231300 30006G18KT P6SM SCT250=



000
FTUS42 KRAH 230024 CCA
TAFINT
TAF COR
KINT 230024Z 2300/2324 27006KT P6SM SCT050
     FM231300 30006G18KT P6SM SCT250=



000
FTUS42 KRAH 230024 CCA
TAFINT
TAF COR
KINT 230024Z 2300/2324 27006KT P6SM SCT050
     FM231300 30006G18KT P6SM SCT250=



000
FTUS42 KRAH 230024 CCA
TAFINT
TAF COR
KINT 230024Z 2300/2324 27006KT P6SM SCT050
     FM231300 30006G18KT P6SM SCT250=



000
FTUS42 KRAH 222320
TAFRDU
TAF
KRDU 222320Z 2300/2324 23012KT P6SM SCT250
     FM230700 30007KT P6SM BKN070
     FM231500 30009G17KT P6SM SCT070=



000
FTUS42 KRAH 222320
TAFFAY
TAF
KFAY 222320Z 2300/2324 23011KT P6SM SKC
     FM230900 32006KT P6SM OVC050
     FM231500 29008G18KT P6SM SKC=



000
FTUS42 KRAH 222320
TAFINT
TAF
KINT 222320Z 2300/2324 28009G20KT P6SM BKN110
     FM230200 29006KT P6SM SCT050
     FM231300 30006G18KT P6SM SCT250=



000
FTUS42 KRAH 222320
TAFINT
TAF
KINT 222320Z 2300/2324 28009G20KT P6SM BKN110
     FM230200 29006KT P6SM SCT050
     FM231300 30006G18KT P6SM SCT250=



000
FTUS42 KRAH 222320
TAFINT
TAF
KINT 222320Z 2300/2324 28009G20KT P6SM BKN110
     FM230200 29006KT P6SM SCT050
     FM231300 30006G18KT P6SM SCT250=



000
FTUS42 KRAH 222320
TAFINT
TAF
KINT 222320Z 2300/2324 28009G20KT P6SM BKN110
     FM230200 29006KT P6SM SCT050
     FM231300 30006G18KT P6SM SCT250=



000
FTUS42 KRAH 222320
TAFGSO
TAF
KGSO 222320Z 2300/2324 29009G17KT P6SM BKN110
     FM230200 29006KT P6SM SCT050
     FM231300 30006G18KT P6SM SCT250=



000
FTUS42 KRAH 222320
TAFRWI
TAF
KRWI 222320Z 2300/2324 24009G17KT P6SM SKC
     FM230700 29004KT P6SM OVC080
     FM231300 29010G20KT P6SM SKC=



000
FTUS42 KRAH 222320
TAFFAY
TAF
KFAY 222320Z 2300/2324 23011KT P6SM SKC
     FM230900 32006KT P6SM OVC050
     FM231500 29008G18KT P6SM SKC=



000
FTUS42 KRAH 222320
TAFGSO
TAF
KGSO 222320Z 2300/2324 29009G17KT P6SM BKN110
     FM230200 29006KT P6SM SCT050
     FM231300 30006G18KT P6SM SCT250=



000
FTUS42 KRAH 222320
TAFRWI
TAF
KRWI 222320Z 2300/2324 24009G17KT P6SM SKC
     FM230700 29004KT P6SM OVC080
     FM231300 29010G20KT P6SM SKC=



000
FTUS42 KRAH 222320
TAFRDU
TAF
KRDU 222320Z 2300/2324 23012KT P6SM SCT250
     FM230700 30007KT P6SM BKN070
     FM231500 30009G17KT P6SM SCT070=



000
FTUS42 KRAH 221954 AAA
TAFFAY
TAF AMD
KFAY 221954Z 2220/2318 22016G25KT P6SM SKC
     FM222300 24014G26KT P6SM BKN080
     FM230300 25009KT P6SM FEW080
     FM230600 31005KT P6SM SKC
     FM231300 28012KT P6SM SKC=



000
FTUS42 KRAH 221954 AAA
TAFFAY
TAF AMD
KFAY 221954Z 2220/2318 22016G25KT P6SM SKC
     FM222300 24014G26KT P6SM BKN080
     FM230300 25009KT P6SM FEW080
     FM230600 31005KT P6SM SKC
     FM231300 28012KT P6SM SKC=



000
FTUS42 KRAH 221735
TAFRWI
TAF
KRWI 221735Z 2218/2318 23016G23KT P6SM SKC
     FM222200 25015G28KT P6SM BKN080
     FM230100 28009KT P6SM FEW080
     FM230500 31005KT P6SM SKC
     FM231300 28012KT P6SM SKC=



000
FTUS42 KRAH 221735
TAFFAY
TAF
KFAY 221735Z 2218/2318 25019G28KT P6SM SKC
     FM222300 24014G26KT P6SM BKN080
     FM230300 25009KT P6SM FEW080
     FM230600 31005KT P6SM SKC
     FM231300 28012KT P6SM SKC=



000
FTUS42 KRAH 221735
TAFINT
TAF
KINT 221735Z 2218/2318 24015G27KT P6SM SCT090
     FM222100 25015G28KT P6SM BKN080
     FM230000 28009KT P6SM FEW080
     FM230400 31005KT P6SM SKC
     FM231300 28012KT P6SM SKC=



000
FTUS42 KRAH 221735
TAFRDU
TAF
KRDU 221735Z 2218/2318 24018G28KT P6SM FEW060
     FM222200 25015G28KT P6SM BKN080
     FM230100 28009KT P6SM FEW080
     FM230500 31005KT P6SM SKC
     FM231300 28012KT P6SM SKC=



000
FTUS42 KRAH 221735
TAFGSO
TAF
KGSO 221735Z 2218/2318 25014G25KT P6SM FEW070 SCT250
     FM222100 25015G28KT P6SM BKN080
     FM230000 28009KT P6SM FEW080
     FM230400 31005KT P6SM SKC
     FM231300 28012KT P6SM SKC=



    US Dept of Commerce
    National Oceanic and Atmospheric Administration
    National Weather Service
    1325 East West Highway
    Silver Spring, MD 20910
    Page Author: NWS Internet Services Team
Disclaimer
Information Quality
Credits
Glossary
Privacy Policy
Freedom of Information Act (FOIA)
About Us
Career Opportunities